createdAt,value
2022-09-07T00:00:50.219Z,1.05
2022-09-07T00:03:18.726Z,1.10
2022-09-07T00:05:49.014Z,1.00
2022-09-07T00:08:24.796Z,1.50
2022-09-07T00:10:54.819Z,0.90
2022-09-07T00:13:23.251Z,0.85
2022-09-07T00:15:51.385Z,1.15
2022-09-07T00:18:19.456Z,0.98
2022-09-07T00:20:47.535Z,1.10
2022-09-07T00:23:15.558Z,1.20
2022-09-07T00:25:44.935Z,1.13
2022-09-07T00:28:12.969Z,0.90
2022-09-07T00:30:42.886Z,1.20
2022-09-07T00:33:11.207Z,0.88
2022-09-07T00:35:42.141Z,1.23
2022-09-07T00:38:10.374Z,1.00
2022-09-07T00:40:38.539Z,1.23
2022-09-07T00:43:08.376Z,1.27
2022-09-07T00:45:36.438Z,1.00
2022-09-07T00:48:06.234Z,1.23
2022-09-07T00:50:36.963Z,1.50
2022-09-07T00:53:07.050Z,1.30
2022-09-07T00:55:36.450Z,1.50
2022-09-07T00:58:04.938Z,1.35
2022-09-07T01:00:34.444Z,1.02
2022-09-07T01:03:03.559Z,1.20
2022-09-07T01:05:35.462Z,0.93
2022-09-07T01:08:05.462Z,1.13
2022-09-07T01:10:33.967Z,1.25
2022-09-07T01:13:02.035Z,1.50
2022-09-07T01:16:51.975Z,1.20
2022-09-07T01:19:43.687Z,1.08
2022-09-07T01:22:24.659Z,1.30
2022-09-07T01:25:01.756Z,1.25
2022-09-07T01:28:08.750Z,1.40
2022-09-07T01:30:38.708Z,1.40
2022-09-07T01:33:19.755Z,1.30
2022-09-07T01:35:54.425Z,1.50
2022-09-07T01:38:25.039Z,1.67
2022-09-07T01:40:56.638Z,1.25
2022-09-07T01:43:31.575Z,1.35
2022-09-07T01:45:59.906Z,1.17
2022-09-07T01:48:28.840Z,1.20
2022-09-07T01:51:00.404Z,1.30
2022-09-07T01:53:33.999Z,1.42
2022-09-07T01:56:05.618Z,1.20
2022-09-07T01:58:39.466Z,1.42
2022-09-07T02:01:11.488Z,1.50
2022-09-07T02:03:43.590Z,1.40
2022-09-07T02:06:15.628Z,1.57
2022-09-07T02:08:47.455Z,1.42
2022-09-07T02:11:19.243Z,1.23
2022-09-07T02:13:51.611Z,1.33
2022-09-07T02:16:23.425Z,1.30
2022-09-07T02:18:53.798Z,1.80
2022-09-07T02:21:25.894Z,1.48
2022-09-07T02:23:57.910Z,1.50
2022-09-07T02:26:26.883Z,1.60
2022-09-07T02:28:56.744Z,1.50
2022-09-07T02:31:24.831Z,1.50
2022-09-07T02:33:53.154Z,1.42
2022-09-07T02:36:25.584Z,1.50
2022-09-07T02:38:53.749Z,1.60
2022-09-07T02:41:31.311Z,1.42
2022-09-07T02:44:01.536Z,1.70
2022-09-07T02:46:37.971Z,1.60
2022-09-07T02:49:11.715Z,1.75
2022-09-07T02:51:45.897Z,1.80
2022-09-07T02:54:30.096Z,1.60
2022-09-07T02:57:04.823Z,1.45
2022-09-07T02:59:54.043Z,1.70
2022-09-07T03:02:26.788Z,1.58
2022-09-07T03:05:02.284Z,1.40
2022-09-07T03:07:44.101Z,1.70
2022-09-07T03:10:13.828Z,1.70
2022-09-07T03:12:44.844Z,1.83
2022-09-07T03:15:15.528Z,1.60
2022-09-07T03:17:43.940Z,1.75
2022-09-07T03:20:12.413Z,1.75
2022-09-07T03:22:40.666Z,1.65
2022-09-07T03:25:09.696Z,1.70
2022-09-07T03:27:37.961Z,1.63
2022-09-07T03:30:07.678Z,1.58
2022-09-07T03:32:38.488Z,1.60
2022-09-07T03:35:07.848Z,1.60
2022-09-07T03:37:37.008Z,1.77
2022-09-07T03:40:06.166Z,1.80
2022-09-07T03:42:34.335Z,1.80
2022-09-07T03:45:02.426Z,2.05
2022-09-07T03:47:30.628Z,2.10
2022-09-07T03:50:00.077Z,1.75
2022-09-07T03:52:28.452Z,2.00
2022-09-07T03:54:56.668Z,1.90
2022-09-07T03:57:24.736Z,1.80
2022-09-07T03:59:52.768Z,1.90
2022-09-07T04:02:20.887Z,2.00
2022-09-07T04:04:49.089Z,1.98
2022-09-07T04:07:18.569Z,1.98
2022-09-07T04:09:46.589Z,1.85
2022-09-07T04:12:14.723Z,1.90
2022-09-07T04:14:42.711Z,1.98
2022-09-07T04:17:10.806Z,2.40
2022-09-07T04:19:39.019Z,2.00
2022-09-07T04:22:07.061Z,2.40
2022-09-07T04:24:36.491Z,2.25
2022-09-07T04:27:04.614Z,2.10
2022-09-07T04:29:32.613Z,2.10
2022-09-07T04:32:00.658Z,2.00
2022-09-07T04:34:28.744Z,2.03
2022-09-07T04:36:56.780Z,2.20
2022-09-07T04:39:24.909Z,2.20
2022-09-07T04:41:54.910Z,2.30
2022-09-07T04:44:22.953Z,2.00
2022-09-07T04:46:51.193Z,2.65
2022-09-07T04:49:20.291Z,2.40
2022-09-07T04:51:48.305Z,2.20
2022-09-07T04:54:16.312Z,2.05
2022-09-07T04:56:44.303Z,2.00
2022-09-07T04:59:13.726Z,2.03
2022-09-07T05:01:41.794Z,2.53
2022-09-07T05:04:09.829Z,2.10
2022-09-07T05:06:37.886Z,2.45
2022-09-07T05:09:05.902Z,2.10
2022-09-07T05:11:34.236Z,2.05
2022-09-07T05:14:04.767Z,1.63
2022-09-07T05:16:34.322Z,2.08
2022-09-07T05:19:03.914Z,1.88
2022-09-07T05:21:34.070Z,2.20
2022-09-07T05:24:02.813Z,2.03
2022-09-07T05:26:33.751Z,1.88
2022-09-07T05:31:53.494Z,2.10
2022-09-07T05:36:57.022Z,2.25
2022-09-07T05:39:25.417Z,2.40
2022-09-07T05:41:53.762Z,2.40
2022-09-07T05:47:11.668Z,2.33
2022-09-07T05:49:39.813Z,2.00
2022-09-07T05:52:08.171Z,2.35
2022-09-07T05:54:36.255Z,2.60
2022-09-07T05:57:04.502Z,2.35
2022-09-07T05:59:32.519Z,2.70
2022-09-07T06:02:00.716Z,2.35
2022-09-07T06:04:30.473Z,2.30
2022-09-07T06:07:20.556Z,2.67
2022-09-07T06:12:35.134Z,2.00
2022-09-07T06:15:03.198Z,2.15
2022-09-07T06:17:31.627Z,2.03
2022-09-07T06:20:01.022Z,2.08
2022-09-07T06:22:31.211Z,1.90
2022-09-07T06:24:59.864Z,2.40
2022-09-07T06:27:28.168Z,1.85
2022-09-07T06:29:56.627Z,2.67
2022-09-07T06:35:14.896Z,2.35
2022-09-07T06:37:42.950Z,2.10
2022-09-07T06:40:12.071Z,2.08
2022-09-07T06:42:40.367Z,1.88
2022-09-07T06:45:11.408Z,1.85
2022-09-07T06:47:40.099Z,1.83
2022-09-07T06:50:09.253Z,1.80
2022-09-07T06:55:27.729Z,2.00
2022-09-07T06:57:55.791Z,1.95
2022-09-07T07:00:23.959Z,2.05
2022-09-07T07:02:52.174Z,2.22
2022-09-07T07:05:20.403Z,2.00
2022-09-07T07:07:49.869Z,2.10
2022-09-07T07:10:23.646Z,1.90
2022-09-07T07:12:56.707Z,1.98
2022-09-07T07:15:27.552Z,2.00
2022-09-07T07:17:59.064Z,2.03
2022-09-07T07:20:33.549Z,2.10
2022-09-07T07:23:03.034Z,1.80
2022-09-07T07:25:31.382Z,1.95
2022-09-07T07:30:47.421Z,2.10
2022-09-07T07:33:15.587Z,2.25
2022-09-07T07:35:43.714Z,1.92
2022-09-07T07:43:49.659Z,2.38
2022-09-07T07:46:18.267Z,3.00
2022-09-07T07:48:48.759Z,7.45
2022-09-07T07:51:16.910Z,6.60
2022-09-07T07:53:46.315Z,5.20
2022-09-07T07:56:14.693Z,7.38
2022-09-07T07:58:46.503Z,5.65
2022-09-07T08:01:16.612Z,2.75
2022-09-07T08:03:45.889Z,1.88
2022-09-07T08:06:15.571Z,1.90
2022-09-07T08:08:44.712Z,2.35
2022-09-07T08:11:14.929Z,4.00
2022-09-07T08:13:44.087Z,5.50
2022-09-07T08:16:12.792Z,3.15
2022-09-07T08:18:41.372Z,5.65
2022-09-07T08:21:11.472Z,2.40
2022-09-07T08:23:39.778Z,3.10
2022-09-07T08:26:08.208Z,3.00
2022-09-07T08:28:40.353Z,7.25
2022-09-07T08:31:09.203Z,2.47
2022-09-07T08:33:37.603Z,3.30
2022-09-07T08:36:07.271Z,2.70
2022-09-07T08:38:36.876Z,2.05
2022-09-07T08:41:26.520Z,3.05
2022-09-07T08:43:59.530Z,1.75
2022-09-07T08:46:32.223Z,2.50
2022-09-07T08:51:35.231Z,4.30
2022-09-07T08:54:03.333Z,3.08
2022-09-07T08:56:33.878Z,5.22
2022-09-07T08:59:08.244Z,13.27
2022-09-07T09:01:41.186Z,7.82
2022-09-07T09:04:15.995Z,2.70
2022-09-07T09:06:54.459Z,3.25
2022-09-07T09:09:29.656Z,2.00
2022-09-07T09:12:04.517Z,1.92
2022-09-07T09:14:38.313Z,2.10
2022-09-07T09:17:10.351Z,2.30
2022-09-07T09:19:58.315Z,1.95
2022-09-07T09:22:28.520Z,2.30
2022-09-07T09:25:01.552Z,2.13
2022-09-07T09:27:29.448Z,3.08
2022-09-07T09:29:58.751Z,2.35
2022-09-07T09:32:35.687Z,3.45
2022-09-07T09:35:07.043Z,3.90
2022-09-07T09:37:37.254Z,3.38
2022-09-07T09:40:18.913Z,2.40
2022-09-07T09:42:47.318Z,2.35
2022-09-07T09:45:20.671Z,3.17
2022-09-07T09:47:51.476Z,2.20
2022-09-07T09:53:25.222Z,2.50
2022-09-07T09:55:53.875Z,1.75
2022-09-07T10:01:27.300Z,2.30
2022-09-07T10:03:57.449Z,2.40
2022-09-07T10:06:27.302Z,2.30
2022-09-07T10:08:57.706Z,2.38
2022-09-07T10:14:30.902Z,2.60
2022-09-07T10:17:02.044Z,2.58
2022-09-07T10:19:34.805Z,2.63
2022-09-07T10:22:04.155Z,2.28
2022-09-07T10:24:36.216Z,2.30
2022-09-07T10:27:20.371Z,2.60
2022-09-07T10:29:48.380Z,2.42
2022-09-07T10:32:28.084Z,2.53
2022-09-07T10:35:07.454Z,2.55
2022-09-07T10:37:42.327Z,2.28
2022-09-07T10:40:21.917Z,2.80
2022-09-07T10:46:03.935Z,12.63
2022-09-07T10:48:38.169Z,4.80
2022-09-07T10:51:14.207Z,3.08
2022-09-07T10:53:47.441Z,6.45
2022-09-07T10:56:19.796Z,3.00
2022-09-07T10:59:04.367Z,2.80
2022-09-07T11:01:40.296Z,2.33
2022-09-07T11:04:27.753Z,2.53
2022-09-07T11:07:00.314Z,2.88
2022-09-07T11:09:49.780Z,2.80
2022-09-07T11:12:22.072Z,5.88
2022-09-07T11:14:55.302Z,2.65
2022-09-07T11:17:25.185Z,2.55
2022-09-07T11:19:57.927Z,2.53
2022-09-07T11:22:32.765Z,2.88
2022-09-07T11:27:57.744Z,2.40
2022-09-07T11:30:29.537Z,2.70
2022-09-07T11:33:02.938Z,2.80
2022-09-07T11:35:36.320Z,3.15
2022-09-07T11:38:11.734Z,2.50
2022-09-07T11:40:44.079Z,2.70
2022-09-07T11:43:17.682Z,2.45
2022-09-07T11:45:49.255Z,2.50
2022-09-07T11:48:21.129Z,2.88
2022-09-07T11:50:54.140Z,2.60
2022-09-07T11:53:24.054Z,2.95
2022-09-07T11:55:56.803Z,2.60
2022-09-07T12:01:17.533Z,3.03
2022-09-07T12:04:02.004Z,2.90
2022-09-07T12:06:52.241Z,2.67
2022-09-07T12:09:36.462Z,3.15
2022-09-07T12:12:31.290Z,3.78
2022-09-07T12:15:06.899Z,2.92
2022-09-07T12:17:43.109Z,3.20
2022-09-07T12:20:13.723Z,2.80
2022-09-07T12:23:04.339Z,2.92
2022-09-07T12:25:34.385Z,4.68
2022-09-07T12:28:02.645Z,4.43
2022-09-07T12:30:58.117Z,3.88
2022-09-07T12:33:46.025Z,5.32
2022-09-07T12:36:42.866Z,5.25
2022-09-07T12:39:24.767Z,4.40
2022-09-07T12:44:43.097Z,3.50
2022-09-07T12:47:28.237Z,3.05
2022-09-07T12:50:06.068Z,3.20
2022-09-07T12:52:49.713Z,2.90
2022-09-07T12:58:36.775Z,2.90
2022-09-07T13:01:14.566Z,2.80
2022-09-07T13:04:13.070Z,2.78
2022-09-07T13:07:09.148Z,3.50
2022-09-07T13:09:37.860Z,3.35
2022-09-07T13:15:36.614Z,3.13
2022-09-07T13:18:04.983Z,3.25
2022-09-07T13:20:36.368Z,3.47
2022-09-07T13:23:22.518Z,3.55
2022-09-07T13:25:53.013Z,4.25
2022-09-07T13:28:31.746Z,2.95
2022-09-07T13:31:08.990Z,3.00
2022-09-07T13:33:48.698Z,3.97
2022-09-07T13:36:26.261Z,6.32
2022-09-07T13:38:55.387Z,7.22
2022-09-07T13:41:32.966Z,8.68
2022-09-07T13:44:03.896Z,5.53
2022-09-07T13:46:45.770Z,3.60
2022-09-07T13:49:34.950Z,3.50
2022-09-07T13:52:08.514Z,3.75
2022-09-07T13:54:47.673Z,3.75
2022-09-07T13:57:21.516Z,3.05
2022-09-07T13:59:52.364Z,3.60
2022-09-07T14:02:24.229Z,2.40
2022-09-07T14:04:54.800Z,2.72
2022-09-07T14:07:24.153Z,2.70
2022-09-07T14:10:07.061Z,2.60
2022-09-07T14:12:43.107Z,2.58
2022-09-07T14:15:19.606Z,3.15
2022-09-07T14:17:48.007Z,2.50
2022-09-07T14:20:17.281Z,2.70
2022-09-07T14:22:48.352Z,3.00
2022-09-07T14:25:22.039Z,2.90
2022-09-07T14:27:50.486Z,3.00
2022-09-07T14:30:25.606Z,3.00
2022-09-07T14:32:55.167Z,3.10
2022-09-07T14:35:24.559Z,2.35
2022-09-07T14:37:53.333Z,2.42
2022-09-07T14:40:22.923Z,2.75
2022-09-07T14:42:52.230Z,2.90
2022-09-07T14:45:33.203Z,2.63
2022-09-07T14:48:01.267Z,2.80
2022-09-07T14:50:32.146Z,2.75
2022-09-07T14:55:48.733Z,3.00
2022-09-07T14:58:23.812Z,2.50
2022-09-07T15:03:56.876Z,3.03
2022-09-07T15:09:30.724Z,2.50
2022-09-07T15:12:18.473Z,2.80
2022-09-07T15:14:47.558Z,2.40
2022-09-07T15:20:31.747Z,2.83
2022-09-07T15:22:59.986Z,2.70
2022-09-07T15:25:28.330Z,2.92
2022-09-07T15:27:56.934Z,2.63
2022-09-07T15:30:27.213Z,2.13
2022-09-07T15:32:57.605Z,2.45
2022-09-07T15:35:25.927Z,2.90
2022-09-07T15:38:02.465Z,2.70
2022-09-07T15:40:33.879Z,2.85
2022-09-07T15:43:11.451Z,2.70
2022-09-07T15:45:44.598Z,2.30
2022-09-07T15:48:16.096Z,2.45
2022-09-07T15:50:43.957Z,2.40
2022-09-07T15:56:00.600Z,2.40
2022-09-07T15:58:30.917Z,2.53
2022-09-07T16:03:53.463Z,2.17
2022-09-07T16:06:22.042Z,2.65
2022-09-07T16:08:51.342Z,2.60
2022-09-07T16:11:23.825Z,2.60
2022-09-07T16:13:56.563Z,2.30
2022-09-07T16:17:25.736Z,2.40
2022-09-07T16:19:20.063Z,2.38
2022-09-07T16:21:48.195Z,2.30
2022-09-07T16:24:16.267Z,3.42
2022-09-07T16:26:44.060Z,2.10
2022-09-07T16:29:11.988Z,2.13
2022-09-07T16:32:44.095Z,2.53
2022-09-07T16:34:29.679Z,2.20
2022-09-07T16:36:57.491Z,2.85
2022-09-07T16:39:25.350Z,2.65
2022-09-07T16:41:53.746Z,2.55
2022-09-07T16:44:21.828Z,2.22
2022-09-07T16:46:50.462Z,2.20
2022-09-07T16:49:19.605Z,2.10
2022-09-07T16:51:49.878Z,2.40
2022-09-07T16:54:18.356Z,2.38
2022-09-07T16:56:46.122Z,1.80
2022-09-07T16:59:16.959Z,1.95
2022-09-07T17:01:44.864Z,2.03
2022-09-07T17:04:13.031Z,1.90
2022-09-07T17:06:41.461Z,1.83
2022-09-07T17:09:12.038Z,2.10
2022-09-07T17:11:39.978Z,2.10
2022-09-07T17:14:07.884Z,2.20
2022-09-07T17:16:37.822Z,2.00
2022-09-07T17:21:55.420Z,1.70
2022-09-07T17:24:26.570Z,2.08
2022-09-07T17:26:54.372Z,1.80
2022-09-07T17:29:22.207Z,2.10
2022-09-07T17:34:37.799Z,2.08
2022-09-07T17:37:05.793Z,1.80
2022-09-07T17:39:35.335Z,2.20
2022-09-07T17:42:04.550Z,2.00
2022-09-07T17:44:37.900Z,1.60
2022-09-07T17:47:06.444Z,1.88
2022-09-07T17:49:34.322Z,1.67
2022-09-07T17:52:02.489Z,1.58
2022-09-07T17:54:30.484Z,1.77
2022-09-07T17:56:59.887Z,1.88
2022-09-07T18:02:15.607Z,1.80
2022-09-07T18:04:43.879Z,1.75
2022-09-07T18:07:12.291Z,1.67
2022-09-07T18:09:40.568Z,1.60
2022-09-07T18:12:09.805Z,1.55
2022-09-07T18:14:37.821Z,1.80
2022-09-07T18:17:06.409Z,1.67
2022-09-07T18:19:36.246Z,1.63
2022-09-07T18:22:04.674Z,1.90
2022-09-07T18:24:32.793Z,1.67
2022-09-07T18:27:01.300Z,1.92
2022-09-07T18:29:33.454Z,1.80
2022-09-07T18:32:02.980Z,1.95
2022-09-07T18:34:32.125Z,2.00
2022-09-07T18:37:00.506Z,2.33
2022-09-07T18:39:29.059Z,1.98
2022-09-07T18:41:56.975Z,1.50
2022-09-07T18:47:22.133Z,2.10
2022-09-07T18:49:51.986Z,1.95
2022-09-07T18:55:09.856Z,2.00
2022-09-07T18:57:38.281Z,2.05
2022-09-07T19:00:07.817Z,2.00
2022-09-07T19:02:37.346Z,1.50
2022-09-07T19:07:53.958Z,1.48
2022-09-07T19:10:22.014Z,1.65
2022-09-07T19:12:49.948Z,1.80
2022-09-07T19:15:18.004Z,1.88
2022-09-07T19:17:47.313Z,1.60
2022-09-07T19:20:15.353Z,1.65
2022-09-07T19:22:43.714Z,1.70
2022-09-07T19:25:11.699Z,1.83
2022-09-07T19:27:39.835Z,1.77
2022-09-07T19:30:08.957Z,1.65
2022-09-07T19:32:36.881Z,1.80
2022-09-07T19:35:06.687Z,1.42
2022-09-07T19:37:34.716Z,1.70
2022-09-07T19:40:02.940Z,1.60
2022-09-07T19:42:30.888Z,2.00
2022-09-07T19:44:59.031Z,1.38
2022-09-07T19:47:26.857Z,1.60
2022-09-07T19:49:54.815Z,1.73
2022-09-07T19:52:24.024Z,1.80
2022-09-07T19:54:51.838Z,1.60
2022-09-07T19:57:19.820Z,1.52
2022-09-07T19:59:47.651Z,1.42
2022-09-07T20:02:15.502Z,1.58
2022-09-07T20:04:43.280Z,1.50
2022-09-07T20:07:11.313Z,1.58
2022-09-07T20:09:40.510Z,2.05
2022-09-07T20:12:09.134Z,1.40
2022-09-07T20:14:37.095Z,1.58
2022-09-07T20:17:05.508Z,1.92
2022-09-07T20:19:33.334Z,1.58
2022-09-07T20:22:01.157Z,1.33
2022-09-07T20:24:28.941Z,1.63
2022-09-07T20:26:58.189Z,1.30
2022-09-07T20:29:28.575Z,1.52
2022-09-07T20:31:57.416Z,1.60
2022-09-07T20:34:25.445Z,1.58
2022-09-07T20:36:53.371Z,1.70
2022-09-07T20:39:22.070Z,1.60
2022-09-07T20:41:50.123Z,1.50
2022-09-07T20:44:19.527Z,1.70
2022-09-07T20:46:47.689Z,1.65
2022-09-07T20:49:16.121Z,1.60
2022-09-07T20:51:44.413Z,1.83
2022-09-07T20:54:12.321Z,1.75
2022-09-07T20:56:40.142Z,1.35
2022-09-07T20:59:07.971Z,1.48
2022-09-07T21:01:37.300Z,1.25
2022-09-07T21:04:06.200Z,1.70
2022-09-07T21:06:34.385Z,1.58
2022-09-07T21:09:02.293Z,1.80
2022-09-07T21:11:32.261Z,1.60
2022-09-07T21:14:01.438Z,1.80
2022-09-07T21:16:29.932Z,1.70
2022-09-07T21:19:00.966Z,1.83
2022-09-07T21:21:29.804Z,1.67
2022-09-07T21:23:58.920Z,1.50
2022-09-07T21:26:27.856Z,1.60
2022-09-07T21:28:57.028Z,1.50
2022-09-07T21:31:25.423Z,1.52
2022-09-07T21:33:55.289Z,1.60
2022-09-07T21:36:25.119Z,1.70
2022-09-07T21:38:54.223Z,1.33
2022-09-07T21:41:23.917Z,1.60
2022-09-07T21:43:55.410Z,1.88
2022-09-07T21:46:23.596Z,1.38
2022-09-07T21:48:51.699Z,1.88
2022-09-07T21:51:19.540Z,1.70
2022-09-07T21:53:51.930Z,2.15
2022-09-07T21:56:19.735Z,1.77
2022-09-07T21:58:47.795Z,1.67
2022-09-07T22:01:17.825Z,1.60
2022-09-07T22:03:47.630Z,1.50
2022-09-07T22:06:15.819Z,2.08
2022-09-07T22:08:44.951Z,1.50
2022-09-07T22:11:16.098Z,1.88
2022-09-07T22:13:44.399Z,1.67
2022-09-07T22:16:12.800Z,1.88
2022-09-07T22:18:43.950Z,1.90
2022-09-07T22:21:14.262Z,1.52
2022-09-07T22:23:43.943Z,2.10
2022-09-07T22:26:12.012Z,1.50
2022-09-07T22:28:41.851Z,1.60
2022-09-07T22:31:10.947Z,1.75
2022-09-07T22:33:38.953Z,1.88
2022-09-07T22:36:11.603Z,1.98
2022-09-07T22:38:40.075Z,1.55
2022-09-07T22:41:09.194Z,1.63
2022-09-07T22:43:37.259Z,1.60
2022-09-07T22:46:07.096Z,1.98
2022-09-07T22:48:35.106Z,2.05
2022-09-07T22:51:03.457Z,1.70
2022-09-07T22:53:33.113Z,1.52
2022-09-07T22:56:01.851Z,1.90
2022-09-07T22:58:30.216Z,2.10
2022-09-07T23:00:59.314Z,2.20
2022-09-07T23:03:29.508Z,1.80
2022-09-07T23:05:57.878Z,1.45
2022-09-07T23:08:25.950Z,1.85
2022-09-07T23:10:54.289Z,1.80
2022-09-07T23:13:22.455Z,1.67
2022-09-07T23:15:50.506Z,1.85
2022-09-07T23:18:22.280Z,2.08
2022-09-07T23:20:51.475Z,1.80
2022-09-07T23:23:19.303Z,2.00
2022-09-07T23:25:47.103Z,1.90
2022-09-07T23:28:14.967Z,1.77
2022-09-07T23:30:47.619Z,1.60
2022-09-07T23:33:15.450Z,1.58
2022-09-07T23:35:43.266Z,1.80
2022-09-07T23:38:12.502Z,1.83
2022-09-07T23:40:40.303Z,1.65
2022-09-07T23:43:08.092Z,1.92
2022-09-07T23:45:35.954Z,1.92
2022-09-07T23:48:03.888Z,1.92
2022-09-07T23:50:33.631Z,1.77
2022-09-07T23:53:01.904Z,1.95
2022-09-07T23:55:31.191Z,1.77
2022-09-07T23:57:59.084Z,1.83
